sensor_id;sensor_type;location;lat;lon;timestamp;pressure;altitude;pressure_sealevel;temperature;humidity
15674;BME280;7937;48.090;16.212;2023-06-04T00:01:24;97193.66;;;5.47;72.96
15674;BME280;7937;48.090;16.212;2023-06-04T00:04:29;97713.75;;;8.72;73.25
15674;BME280;7937;48.090;16.212;2023-06-04T00:07:32;97902.78;;;9.88;73.01
15674;BME280;7937;48.090;16.212;2023-06-04T00:10:34;97762.59;;;8.94;74.20
15674;BME280;7937;48.090;16.212;2023-06-04T00:13:37;97751.97;;;8.83;73.60
15674;BME280;7937;48.090;16.212;2023-06-04T00:16:39;97772.91;;;9.14;73.71
15674;BME280;7937;48.090;16.212;2023-06-04T00:19:43;97749.19;;;8.89;73.62
15674;BME280;7937;48.090;16.212;2023-06-04T00:22:46;97694.19;;;8.55;73.96
15674;BME280;7937;48.090;16.212;2023-06-04T00:25:49;97885.19;;;9.75;74.46
15674;BME280;7937;48.090;16.212;2023-06-04T00:28:53;97846.31;;;9.50;73.91
15674;BME280;7937;48.090;16.212;2023-06-04T00:31:56;97605.63;;;7.95;73.53
15674;BME280;7937;48.090;16.212;2023-06-04T00:34:59;97604.03;;;7.94;73.70
15674;BME280;7937;48.090;16.212;2023-06-04T00:38:12;97545.09;;;7.50;74.20
15674;BME280;7937;48.090;16.212;2023-06-04T00:41:16;97494.09;;;7.07;74.15
15674;BME280;7937;48.090;16.212;2023-06-04T00:44:19;97699.06;;;8.27;74.49
15674;BME280;7937;48.090;16.212;2023-06-04T00:47:24;97876.28;;;9.57;75.15
15674;BME280;7937;48.090;16.212;2023-06-04T00:50:27;97692.25;;;8.32;74.64
15674;BME280;7937;48.090;16.212;2023-06-04T00:53:31;97630.84;;;7.86;74.65
15674;BME280;7937;48.090;16.212;2023-06-04T00:56:37;97859.16;;;9.42;75.09
15674;BME280;7937;48.090;16.212;2023-06-04T00:59:40;97816.81;;;9.05;75.65
15674;BME280;7937;48.090;16.212;2023-06-04T01:02:46;97703.50;;;8.15;75.48
15674;BME280;7937;48.090;16.212;2023-06-04T01:06:00;97548.53;;;7.21;76.60
15674;BME280;7937;48.090;16.212;2023-06-04T01:09:07;97765.09;;;8.66;76.55
15674;BME280;7937;48.090;16.212;2023-06-04T01:12:10;97861.09;;;9.35;76.24
15674;BME280;7937;48.090;16.212;2023-06-04T01:15:14;97505.00;;;6.98;76.58
15674;BME280;7937;48.090;16.212;2023-06-04T01:18:23;97867.47;;;9.22;77.02
15674;BME280;7937;48.090;16.212;2023-06-04T01:21:35;97594.69;;;7.43;77.38
15674;BME280;7937;48.090;16.212;2023-06-04T01:24:41;97773.56;;;8.44;77.27
15674;BME280;7937;48.090;16.212;2023-06-04T01:27:49;97665.97;;;7.70;78.13
15674;BME280;7937;48.090;16.212;2023-06-04T01:30:54;97867.09;;;9.07;78.50
15674;BME280;7937;48.090;16.212;2023-06-04T01:33:59;97858.75;;;9.03;78.16
15674;BME280;7937;48.090;16.212;2023-06-04T01:37:02;97667.28;;;7.79;78.15
15674;BME280;7937;48.090;16.212;2023-06-04T01:40:08;97722.59;;;8.24;78.37
15674;BME280;7937;48.090;16.212;2023-06-04T01:43:11;97674.19;;;7.80;78.51
15674;BME280;7937;48.090;16.212;2023-06-04T01:46:14;97719.66;;;8.14;78.56
15674;BME280;7937;48.090;16.212;2023-06-04T01:49:17;97732.59;;;8.22;78.24
15674;BME280;7937;48.090;16.212;2023-06-04T01:52:20;97596.56;;;7.43;78.40
15674;BME280;7937;48.090;16.212;2023-06-04T01:55:24;97537.88;;;7.09;78.38
15674;BME280;7937;48.090;16.212;2023-06-04T01:58:31;97640.81;;;7.72;78.93
15674;BME280;7937;48.090;16.212;2023-06-04T02:01:36;97626.84;;;7.65;78.70
15674;BME280;7937;48.090;16.212;2023-06-04T02:04:39;97572.00;;;7.36;78.84
15674;BME280;7937;48.090;16.212;2023-06-04T02:07:45;97673.13;;;7.99;79.32
15674;BME280;7937;48.090;16.212;2023-06-04T02:10:49;97660.63;;;7.88;79.07
15674;BME280;7937;48.090;16.212;2023-06-04T02:13:52;97779.31;;;8.71;79.22
15674;BME280;7937;48.090;16.212;2023-06-04T02:16:57;97850.72;;;9.21;78.73
15674;BME280;7937;48.090;16.212;2023-06-04T02:20:00;97511.88;;;7.18;78.86
15674;BME280;7937;48.090;16.212;2023-06-04T02:23:04;97520.28;;;7.15;78.98
15674;BME280;7937;48.090;16.212;2023-06-04T02:26:07;97702.53;;;8.28;79.19
15674;BME280;7937;48.090;16.212;2023-06-04T02:29:09;97867.03;;;9.48;78.59
15674;BME280;7937;48.090;16.212;2023-06-04T02:32:12;97620.06;;;7.99;78.50
15674;BME280;7937;48.090;16.212;2023-06-04T02:35:15;97697.28;;;8.51;78.63
15674;BME280;7937;48.090;16.212;2023-06-04T02:38:17;97520.59;;;7.37;78.06
15674;BME280;7937;48.090;16.212;2023-06-04T02:41:20;97700.09;;;8.68;78.77
15674;BME280;7937;48.090;16.212;2023-06-04T02:44:25;97752.69;;;9.13;78.50
15674;BME280;7937;48.090;16.212;2023-06-04T02:47:28;97664.97;;;8.55;78.09
15674;BME280;7937;48.090;16.212;2023-06-04T02:50:31;97731.78;;;8.93;77.81
15674;BME280;7937;48.090;16.212;2023-06-04T02:53:34;97733.16;;;9.08;77.46
15674;BME280;7937;48.090;16.212;2023-06-04T02:56:37;97746.94;;;9.16;77.28
15674;BME280;7937;48.090;16.212;2023-06-04T02:59:39;97581.09;;;8.12;77.68
15674;BME280;7937;48.090;16.212;2023-06-04T03:02:46;97852.31;;;10.04;77.26
15674;BME280;7937;48.090;16.212;2023-06-04T03:05:50;97556.09;;;8.19;77.37
15674;BME280;7937;48.090;16.212;2023-06-04T03:08:54;97822.25;;;9.92;77.53
15674;BME280;7937;48.090;16.212;2023-06-04T03:12:01;97626.22;;;8.77;77.50
15674;BME280;7937;48.090;16.212;2023-06-04T03:15:05;97793.94;;;9.86;77.49
15674;BME280;7937;48.090;16.212;2023-06-04T03:18:08;97576.06;;;8.34;77.09
15674;BME280;7937;48.090;16.212;2023-06-04T03:21:11;97558.72;;;8.31;77.10
15674;BME280;7937;48.090;16.212;2023-06-04T03:24:16;97628.88;;;8.77;77.21
15674;BME280;7937;48.090;16.212;2023-06-04T03:27:19;97643.66;;;8.73;77.05
15674;BME280;7937;48.090;16.212;2023-06-04T03:30:22;97584.84;;;8.46;76.86
15674;BME280;7937;48.090;16.212;2023-06-04T03:33:36;97639.13;;;8.85;76.84
15674;BME280;7937;48.090;16.212;2023-06-04T03:36:39;97438.16;;;7.68;76.59
15674;BME280;7937;48.090;16.212;2023-06-04T03:39:42;97558.66;;;8.49;76.55
15674;BME280;7937;48.090;16.212;2023-06-04T03:42:48;97570.06;;;8.85;76.88
15674;BME280;7937;48.090;16.212;2023-06-04T03:45:54;97520.91;;;8.59;76.39
15674;BME280;7937;48.090;16.212;2023-06-04T03:48:58;97549.50;;;8.81;76.52
15674;BME280;7937;48.090;16.212;2023-06-04T03:52:03;97514.78;;;8.59;76.20
15674;BME280;7937;48.090;16.212;2023-06-04T03:55:06;97696.19;;;9.81;76.10
15674;BME280;7937;48.090;16.212;2023-06-04T03:58:10;97749.06;;;10.18;76.06
15674;BME280;7937;48.090;16.212;2023-06-04T04:01:18;97747.91;;;10.26;76.36
15674;BME280;7937;48.090;16.212;2023-06-04T04:04:28;97792.34;;;10.54;76.11
15674;BME280;7937;48.090;16.212;2023-06-04T04:07:31;97782.44;;;10.49;75.94
15674;BME280;7937;48.090;16.212;2023-06-04T04:10:34;97739.59;;;10.11;76.35
15674;BME280;7937;48.090;16.212;2023-06-04T04:13:38;97879.88;;;11.19;77.02
15674;BME280;7937;48.090;16.212;2023-06-04T04:16:42;97658.78;;;9.60;76.32
15674;BME280;7937;48.090;16.212;2023-06-04T04:19:46;97776.94;;;10.56;76.53
15674;BME280;7937;48.090;16.212;2023-06-04T04:22:49;97819.19;;;10.64;76.69
15674;BME280;7937;48.090;16.212;2023-06-04T04:25:54;97715.72;;;10.27;76.56
15674;BME280;7937;48.090;16.212;2023-06-04T04:29:00;97735.22;;;10.45;76.58
15674;BME280;7937;48.090;16.212;2023-06-04T04:32:06;97840.00;;;11.13;76.99
15674;BME280;7937;48.090;16.212;2023-06-04T04:35:17;97631.75;;;9.79;76.98
15674;BME280;7937;48.090;16.212;2023-06-04T04:38:22;97895.31;;;11.51;77.41
15674;BME280;7937;48.090;16.212;2023-06-04T04:41:34;97722.09;;;10.43;77.45
15674;BME280;7937;48.090;16.212;2023-06-04T04:44:37;97699.28;;;10.30;77.08
15674;BME280;7937;48.090;16.212;2023-06-04T04:47:41;97644.81;;;10.09;77.65
15674;BME280;7937;48.090;16.212;2023-06-04T04:50:44;97638.19;;;9.95;77.20
15674;BME280;7937;48.090;16.212;2023-06-04T04:53:48;97766.81;;;10.87;77.37
15674;BME280;7937;48.090;16.212;2023-06-04T04:56:51;97663.59;;;10.31;77.01
15674;BME280;7937;48.090;16.212;2023-06-04T05:00:15;97627.19;;;10.20;76.09
15674;BME280;7937;48.090;16.212;2023-06-04T05:03:21;97827.16;;;11.60;76.07
15674;BME280;7937;48.090;16.212;2023-06-04T05:06:24;97747.84;;;11.17;74.63
15674;BME280;7937;48.090;16.212;2023-06-04T05:09:27;97689.28;;;10.88;74.65
15674;BME280;7937;48.090;16.212;2023-06-04T05:12:30;97909.31;;;12.47;70.42
15674;BME280;7937;48.090;16.212;2023-06-04T05:15:39;97561.63;;;10.31;68.20
15674;BME280;7937;48.090;16.212;2023-06-04T05:18:44;97816.84;;;12.02;67.55
15674;BME280;7937;48.090;16.212;2023-06-04T05:21:52;97641.31;;;10.88;67.72
15674;BME280;7937;48.090;16.212;2023-06-04T05:24:56;97708.44;;;11.41;67.69
15674;BME280;7937;48.090;16.212;2023-06-04T05:28:01;97614.44;;;10.73;67.11
15674;BME280;7937;48.090;16.212;2023-06-04T05:31:04;97875.91;;;12.50;67.54
15674;BME280;7937;48.090;16.212;2023-06-04T05:34:09;97624.59;;;10.93;67.67
15674;BME280;7937;48.090;16.212;2023-06-04T05:37:25;97745.72;;;11.74;68.05
15674;BME280;7937;48.090;16.212;2023-06-04T05:40:32;97948.13;;;12.99;69.93
15674;BME280;7937;48.090;16.212;2023-06-04T05:43:35;97942.03;;;13.03;70.54
15674;BME280;7937;48.090;16.212;2023-06-04T05:46:39;97842.63;;;12.35;71.57
15674;BME280;7937;48.090;16.212;2023-06-04T05:49:45;97732.97;;;11.59;71.69
15674;BME280;7937;48.090;16.212;2023-06-04T05:52:48;97874.53;;;12.69;70.90
15674;BME280;7937;48.090;16.212;2023-06-04T05:55:51;97811.69;;;12.18;68.23
15674;BME280;7937;48.090;16.212;2023-06-04T05:58:56;97763.31;;;12.14;67.30
15674;BME280;7937;48.090;16.212;2023-06-04T06:02:01;97657.69;;;11.35;67.80
15674;BME280;7937;48.090;16.212;2023-06-04T06:05:05;97826.47;;;12.47;69.30
15674;BME280;7937;48.090;16.212;2023-06-04T06:08:10;97947.28;;;13.42;68.74
15674;BME280;7937;48.090;16.212;2023-06-04T06:11:15;97862.63;;;12.55;67.99
15674;BME280;7937;48.090;16.212;2023-06-04T06:14:18;97904.91;;;13.07;69.07
15674;BME280;7937;48.090;16.212;2023-06-04T06:17:21;97704.06;;;11.73;68.96
15674;BME280;7937;48.090;16.212;2023-06-04T06:20:27;97391.88;;;10.04;67.26
15674;BME280;7937;48.090;16.212;2023-06-04T06:23:32;97952.09;;;13.40;66.93
15674;BME280;7937;48.090;16.212;2023-06-04T06:26:36;97830.91;;;12.63;65.84
15674;BME280;7937;48.090;16.212;2023-06-04T06:29:42;97963.22;;;13.59;66.21
15674;BME280;7937;48.090;16.212;2023-06-04T06:32:47;97717.31;;;12.07;66.23
15674;BME280;7937;48.090;16.212;2023-06-04T06:35:53;97915.38;;;13.35;66.01
15674;BME280;7937;48.090;16.212;2023-06-04T06:38:56;97935.06;;;13.51;65.47
15674;BME280;7937;48.090;16.212;2023-06-04T06:41:59;97677.69;;;11.99;64.78
15674;BME280;7937;48.090;16.212;2023-06-04T06:45:07;97901.31;;;13.50;65.72
15674;BME280;7937;48.090;16.212;2023-06-04T06:48:10;97851.22;;;13.18;65.29
15674;BME280;7937;48.090;16.212;2023-06-04T06:51:12;97926.94;;;13.73;64.87
15674;BME280;7937;48.090;16.212;2023-06-04T06:54:15;97958.63;;;13.86;63.80
15674;BME280;7937;48.090;16.212;2023-06-04T07:02:11;97953.69;;;14.05;63.85
15674;BME280;7937;48.090;16.212;2023-06-04T07:05:14;97969.41;;;14.29;63.94
15674;BME280;7937;48.090;16.212;2023-06-04T07:08:19;97970.78;;;14.41;63.88
15674;BME280;7937;48.090;16.212;2023-06-04T07:11:24;97893.97;;;14.05;64.04
15674;BME280;7937;48.090;16.212;2023-06-04T07:14:29;97915.44;;;14.15;63.08
15674;BME280;7937;48.090;16.212;2023-06-04T07:17:32;97896.00;;;13.92;63.63
15674;BME280;7937;48.090;16.212;2023-06-04T07:21:10;97659.03;;;12.58;63.63
15674;BME280;7937;48.090;16.212;2023-06-04T07:24:12;97979.53;;;14.59;63.66
15674;BME280;7937;48.090;16.212;2023-06-04T07:27:16;97671.78;;;12.51;63.36
15674;BME280;7937;48.090;16.212;2023-06-04T07:30:19;97946.84;;;14.25;63.65
15674;BME280;7937;48.090;16.212;2023-06-04T07:33:22;97871.94;;;13.98;63.34
15674;BME280;7937;48.090;16.212;2023-06-04T07:36:25;97872.00;;;14.08;63.33
15674;BME280;7937;48.090;16.212;2023-06-04T07:39:28;97907.53;;;14.40;63.08
15674;BME280;7937;48.090;16.212;2023-06-04T07:42:31;97905.69;;;14.46;62.61
15674;BME280;7937;48.090;16.212;2023-06-04T07:45:33;97980.78;;;14.99;62.75
15674;BME280;7937;48.090;16.212;2023-06-04T07:48:37;97775.97;;;13.79;62.86
15674;BME280;7937;48.090;16.212;2023-06-04T07:51:40;97904.72;;;14.62;62.53
15674;BME280;7937;48.090;16.212;2023-06-04T07:54:42;97980.56;;;15.15;62.25
15674;BME280;7937;48.090;16.212;2023-06-04T07:57:45;97971.44;;;15.21;62.80
15674;BME280;7937;48.090;16.212;2023-06-04T08:00:49;97907.75;;;14.86;63.07
15674;BME280;7937;48.090;16.212;2023-06-04T08:03:54;97968.78;;;15.32;63.28
15674;BME280;7937;48.090;16.212;2023-06-04T08:06:58;97935.75;;;15.21;63.17
15674;BME280;7937;48.090;16.212;2023-06-04T08:10:02;97816.94;;;14.42;62.96
15674;BME280;7937;48.090;16.212;2023-06-04T08:13:11;97990.84;;;15.59;62.47
15674;BME280;7937;48.090;16.212;2023-06-04T08:16:14;97973.66;;;15.55;62.80
15674;BME280;7937;48.090;16.212;2023-06-04T08:19:19;97776.19;;;14.35;61.85
15674;BME280;7937;48.090;16.212;2023-06-04T08:22:26;97943.84;;;15.52;61.51
15674;BME280;7937;48.090;16.212;2023-06-04T08:25:30;97905.13;;;15.17;62.38
15674;BME280;7937;48.090;16.212;2023-06-04T08:28:41;97996.84;;;15.92;62.56
15674;BME280;7937;48.090;16.212;2023-06-04T08:31:44;97990.38;;;15.98;62.52
15674;BME280;7937;48.090;16.212;2023-06-04T08:34:46;97931.28;;;15.72;62.45
15674;BME280;7937;48.090;16.212;2023-06-04T08:37:50;97989.31;;;16.04;62.35
15674;BME280;7937;48.090;16.212;2023-06-04T08:44:36;98006.72;;;16.47;60.46
15674;BME280;7937;48.090;16.212;2023-06-04T08:47:44;98008.06;;;16.50;62.14
15674;BME280;7937;48.090;16.212;2023-06-04T08:50:51;98013.69;;;16.69;61.55
15674;BME280;7937;48.090;16.212;2023-06-04T08:53:58;97984.38;;;16.67;61.47
15674;BME280;7937;48.090;16.212;2023-06-04T08:57:01;98002.03;;;16.99;59.96
15674;BME280;7937;48.090;16.212;2023-06-04T09:00:07;97994.25;;;16.97;59.80
15674;BME280;7937;48.090;16.212;2023-06-04T09:03:10;98018.69;;;17.11;59.24
15674;BME280;7937;48.090;16.212;2023-06-04T09:06:15;97971.44;;;16.69;59.42
15674;BME280;7937;48.090;16.212;2023-06-04T09:09:18;97963.91;;;16.76;60.16
15674;BME280;7937;48.090;16.212;2023-06-04T09:12:24;97986.47;;;16.91;60.32
15674;BME280;7937;48.090;16.212;2023-06-04T09:15:27;97964.41;;;16.84;59.96
15674;BME280;7937;48.090;16.212;2023-06-04T09:18:30;97928.69;;;16.63;61.38
15674;BME280;7937;48.090;16.212;2023-06-04T09:21:32;97976.53;;;16.86;59.44
15674;BME280;7937;48.090;16.212;2023-06-04T09:24:43;97990.44;;;17.03;59.84
15674;BME280;7937;48.090;16.212;2023-06-04T09:27:48;97989.63;;;17.03;59.78
15674;BME280;7937;48.090;16.212;2023-06-04T09:30:52;98007.13;;;17.11;60.15
15674;BME280;7937;48.090;16.212;2023-06-04T09:33:56;98031.56;;;17.24;59.98
15674;BME280;7937;48.090;16.212;2023-06-04T09:36:59;97899.50;;;16.31;60.62
15674;BME280;7937;48.090;16.212;2023-06-04T09:40:03;98021.66;;;17.15;61.40
15674;BME280;7937;48.090;16.212;2023-06-04T09:43:25;97840.47;;;15.85;60.70
15674;BME280;7937;48.090;16.212;2023-06-04T09:47:06;98034.59;;;17.02;60.97
15674;BME280;7937;48.090;16.212;2023-06-04T09:50:13;98025.75;;;16.97;61.09
15674;BME280;7937;48.090;16.212;2023-06-04T09:53:27;98021.38;;;17.11;62.79
15674;BME280;7937;48.090;16.212;2023-06-04T09:56:39;98038.28;;;17.22;61.55
15674;BME280;7937;48.090;16.212;2023-06-04T09:59:49;98028.88;;;17.24;60.77
15674;BME280;7937;48.090;16.212;2023-06-04T10:02:56;98017.81;;;17.26;61.91
15674;BME280;7937;48.090;16.212;2023-06-04T10:06:03;98021.53;;;17.35;60.60
15674;BME280;7937;48.090;16.212;2023-06-04T10:09:08;98016.63;;;17.47;61.04
15674;BME280;7937;48.090;16.212;2023-06-04T10:12:14;98021.63;;;17.69;60.54
15674;BME280;7937;48.090;16.212;2023-06-04T10:15:20;98011.56;;;17.85;59.92
15674;BME280;7937;48.090;16.212;2023-06-04T10:18:23;98017.00;;;17.80;60.32
15674;BME280;7937;48.090;16.212;2023-06-04T10:21:26;98009.75;;;17.75;60.96
15674;BME280;7937;48.090;16.212;2023-06-04T10:24:28;98023.88;;;17.96;60.34
15674;BME280;7937;48.090;16.212;2023-06-04T10:27:31;98013.84;;;18.02;59.69
15674;BME280;7937;48.090;16.212;2023-06-04T10:30:34;98001.19;;;18.02;58.48
15674;BME280;7937;48.090;16.212;2023-06-04T10:33:37;98020.88;;;18.32;58.60
15674;BME280;7937;48.090;16.212;2023-06-04T10:36:44;98032.22;;;18.34;57.81
15674;BME280;7937;48.090;16.212;2023-06-04T10:39:55;98025.91;;;18.44;56.94
15674;BME280;7937;48.090;16.212;2023-06-04T10:43:05;98018.78;;;18.29;58.47
15674;BME280;7937;48.090;16.212;2023-06-04T10:46:13;98029.41;;;18.44;57.05
15674;BME280;7937;48.090;16.212;2023-06-04T10:49:29;98037.59;;;18.63;57.59
15674;BME280;7937;48.090;16.212;2023-06-04T10:52:35;98031.47;;;18.28;56.06
15674;BME280;7937;48.090;16.212;2023-06-04T10:55:44;98027.97;;;18.28;57.32
15674;BME280;7937;48.090;16.212;2023-06-04T10:58:48;98015.41;;;18.13;56.81
15674;BME280;7937;48.090;16.212;2023-06-04T11:01:51;98039.53;;;18.28;56.57
15674;BME280;7937;48.090;16.212;2023-06-04T11:05:05;98040.63;;;18.27;57.06
15674;BME280;7937;48.090;16.212;2023-06-04T11:08:11;98035.25;;;18.22;56.39
15674;BME280;7937;48.090;16.212;2023-06-04T11:11:17;98039.00;;;18.26;56.36
15674;BME280;7937;48.090;16.212;2023-06-04T11:14:20;98034.88;;;18.39;56.72
15674;BME280;7937;48.090;16.212;2023-06-04T11:17:22;98013.66;;;18.27;56.39
15674;BME280;7937;48.090;16.212;2023-06-04T11:20:26;98044.75;;;18.49;56.07
15674;BME280;7937;48.090;16.212;2023-06-04T11:23:30;98047.91;;;18.56;54.70
15674;BME280;7937;48.090;16.212;2023-06-04T11:26:36;98036.31;;;18.55;54.94
15674;BME280;7937;48.090;16.212;2023-06-04T11:29:43;98031.97;;;18.60;55.60
15674;BME280;7937;48.090;16.212;2023-06-04T11:33:00;98032.03;;;18.84;56.46
15674;BME280;7937;48.090;16.212;2023-06-04T11:36:04;98035.72;;;18.93;56.39
15674;BME280;7937;48.090;16.212;2023-06-04T11:39:06;98020.69;;;18.81;56.84
15674;BME280;7937;48.090;16.212;2023-06-04T11:42:09;98046.03;;;18.86;55.49
15674;BME280;7937;48.090;16.212;2023-06-04T11:45:13;98044.84;;;18.68;56.02
15674;BME280;7937;48.090;16.212;2023-06-04T11:48:16;98050.00;;;18.64;56.10
15674;BME280;7937;48.090;16.212;2023-06-04T11:51:20;98044.59;;;18.64;55.55
15674;BME280;7937;48.090;16.212;2023-06-04T11:54:23;98053.00;;;18.63;54.90
15674;BME280;7937;48.090;16.212;2023-06-04T11:57:25;98024.47;;;18.51;55.19
15674;BME280;7937;48.090;16.212;2023-06-04T12:00:28;98037.28;;;18.70;54.96
15674;BME280;7937;48.090;16.212;2023-06-04T12:03:37;98054.72;;;18.83;55.37
15674;BME280;7937;48.090;16.212;2023-06-04T12:06:54;98057.69;;;18.81;54.79
15674;BME280;7937;48.090;16.212;2023-06-04T12:10:05;98056.47;;;18.68;53.91
15674;BME280;7937;48.090;16.212;2023-06-04T12:13:09;98059.06;;;18.49;53.04
15674;BME280;7937;48.090;16.212;2023-06-04T12:16:14;98050.00;;;18.64;53.56
15674;BME280;7937;48.090;16.212;2023-06-04T12:19:17;98053.31;;;18.56;52.37
15674;BME280;7937;48.090;16.212;2023-06-04T12:22:19;98062.25;;;18.51;53.72
15674;BME280;7937;48.090;16.212;2023-06-04T12:25:27;98062.44;;;18.60;54.64
15674;BME280;7937;48.090;16.212;2023-06-04T12:28:30;98059.41;;;18.72;54.80
15674;BME280;7937;48.090;16.212;2023-06-04T12:31:32;98057.94;;;18.85;54.00
15674;BME280;7937;48.090;16.212;2023-06-04T12:34:37;98060.88;;;18.88;53.64
15674;BME280;7937;48.090;16.212;2023-06-04T12:37:41;98031.91;;;18.70;52.79
15674;BME280;7937;48.090;16.212;2023-06-04T12:40:43;98051.47;;;18.80;53.68
15674;BME280;7937;48.090;16.212;2023-06-04T12:43:46;98054.97;;;18.81;53.69
15674;BME280;7937;48.090;16.212;2023-06-04T12:46:48;98047.28;;;18.69;54.95
15674;BME280;7937;48.090;16.212;2023-06-04T12:49:50;97940.81;;;18.03;54.68
15674;BME280;7937;48.090;16.212;2023-06-04T12:52:54;98046.94;;;18.76;54.64
15674;BME280;7937;48.090;16.212;2023-06-04T12:55:57;98038.09;;;18.70;55.04
15674;BME280;7937;48.090;16.212;2023-06-04T12:59:00;98050.63;;;18.85;55.79
15674;BME280;7937;48.090;16.212;2023-06-04T13:02:02;98047.94;;;18.85;55.46
15674;BME280;7937;48.090;16.212;2023-06-04T13:05:05;98046.22;;;18.94;56.49
15674;BME280;7937;48.090;16.212;2023-06-04T13:08:07;98056.50;;;18.92;54.99
15674;BME280;7937;48.090;16.212;2023-06-04T13:11:10;98042.78;;;18.89;56.02
15674;BME280;7937;48.090;16.212;2023-06-04T13:14:12;98050.25;;;18.97;54.19
15674;BME280;7937;48.090;16.212;2023-06-04T13:17:14;98030.38;;;18.88;54.29
15674;BME280;7937;48.090;16.212;2023-06-04T13:20:24;98040.34;;;19.11;53.79
15674;BME280;7937;48.090;16.212;2023-06-04T13:23:27;98024.91;;;18.69;53.26
15674;BME280;7937;48.090;16.212;2023-06-04T13:26:49;98045.13;;;18.66;55.37
15674;BME280;7937;48.090;16.212;2023-06-04T13:29:52;98055.88;;;18.71;55.65
15674;BME280;7937;48.090;16.212;2023-06-04T13:32:54;98047.22;;;18.74;55.96
15674;BME280;7937;48.090;16.212;2023-06-04T13:35:56;98035.13;;;18.67;53.89
15674;BME280;7937;48.090;16.212;2023-06-04T13:38:59;98041.09;;;18.64;54.94
15674;BME280;7937;48.090;16.212;2023-06-04T13:42:01;98038.13;;;18.65;54.87
15674;BME280;7937;48.090;16.212;2023-06-04T13:45:04;98032.69;;;18.70;54.74
15674;BME280;7937;48.090;16.212;2023-06-04T13:48:08;98042.88;;;18.78;55.52
15674;BME280;7937;48.090;16.212;2023-06-04T13:51:11;98046.31;;;18.84;54.31
15674;BME280;7937;48.090;16.212;2023-06-04T13:54:14;98043.06;;;18.87;54.78
15674;BME280;7937;48.090;16.212;2023-06-04T13:57:16;98047.06;;;18.90;55.23
15674;BME280;7937;48.090;16.212;2023-06-04T14:00:19;98042.34;;;19.00;54.76
15674;BME280;7937;48.090;16.212;2023-06-04T14:03:23;98003.63;;;18.86;54.73
15674;BME280;7937;48.090;16.212;2023-06-04T14:06:26;98044.59;;;19.17;54.68
15674;BME280;7937;48.090;16.212;2023-06-04T14:09:28;98048.84;;;19.23;53.15
15674;BME280;7937;48.090;16.212;2023-06-04T14:12:30;98056.16;;;18.99;54.18
15674;BME280;7937;48.090;16.212;2023-06-04T14:15:33;98061.00;;;19.02;54.95
15674;BME280;7937;48.090;16.212;2023-06-04T14:18:35;98057.31;;;19.17;53.04
15674;BME280;7937;48.090;16.212;2023-06-04T14:21:38;98056.09;;;19.04;53.75
15674;BME280;7937;48.090;16.212;2023-06-04T14:24:41;98062.47;;;18.89;54.77
15674;BME280;7937;48.090;16.212;2023-06-04T14:27:44;98064.13;;;18.85;53.53
15674;BME280;7937;48.090;16.212;2023-06-04T14:30:47;98067.56;;;18.62;54.87
15674;BME280;7937;48.090;16.212;2023-06-04T14:33:49;98071.84;;;18.68;54.77
15674;BME280;7937;48.090;16.212;2023-06-04T14:36:52;98069.16;;;18.34;55.03
15674;BME280;7937;48.090;16.212;2023-06-04T14:39:54;98074.09;;;18.21;55.98
15674;BME280;7937;48.090;16.212;2023-06-04T14:42:56;98074.16;;;18.16;57.33
15674;BME280;7937;48.090;16.212;2023-06-04T14:45:59;98079.03;;;18.14;57.85
15674;BME280;7937;48.090;16.212;2023-06-04T14:49:01;98079.28;;;18.13;57.54
15674;BME280;7937;48.090;16.212;2023-06-04T14:52:04;98072.59;;;18.10;58.55
15674;BME280;7937;48.090;16.212;2023-06-04T14:55:07;98071.31;;;17.97;58.84
15674;BME280;7937;48.090;16.212;2023-06-04T14:58:10;98073.00;;;17.88;58.85
15674;BME280;7937;48.090;16.212;2023-06-04T15:01:13;98072.78;;;17.79;59.92
15674;BME280;7937;48.090;16.212;2023-06-04T15:04:15;98075.50;;;17.69;60.51
15674;BME280;7937;48.090;16.212;2023-06-04T15:07:18;98070.38;;;17.73;60.42
15674;BME280;7937;48.090;16.212;2023-06-04T15:10:21;98078.78;;;17.61;60.71
15674;BME280;7937;48.090;16.212;2023-06-04T15:13:24;98075.03;;;17.57;61.50
15674;BME280;7937;48.090;16.212;2023-06-04T15:16:27;98075.03;;;17.57;61.30
15674;BME280;7937;48.090;16.212;2023-06-04T15:19:29;98070.47;;;17.52;60.08
15674;BME280;7937;48.090;16.212;2023-06-04T15:22:32;98066.50;;;17.40;60.09
15674;BME280;7937;48.090;16.212;2023-06-04T15:25:34;98052.28;;;17.19;60.74
15674;BME280;7937;48.090;16.212;2023-06-04T15:28:36;98043.19;;;17.10;61.03
15674;BME280;7937;48.090;16.212;2023-06-04T15:31:39;98071.38;;;17.33;61.93
15674;BME280;7937;48.090;16.212;2023-06-04T15:34:41;98066.28;;;17.26;61.70
15674;BME280;7937;48.090;16.212;2023-06-04T15:37:44;98070.03;;;17.30;61.46
15674;BME280;7937;48.090;16.212;2023-06-04T15:40:47;98056.34;;;17.21;61.36
15674;BME280;7937;48.090;16.212;2023-06-04T15:43:51;98064.94;;;17.23;61.57
15674;BME280;7937;48.090;16.212;2023-06-04T15:46:55;98063.63;;;17.21;62.03
15674;BME280;7937;48.090;16.212;2023-06-04T15:49:57;98064.69;;;17.20;62.82
15674;BME280;7937;48.090;16.212;2023-06-04T15:53:00;98066.31;;;17.16;62.88
15674;BME280;7937;48.090;16.212;2023-06-04T15:56:02;98062.25;;;17.18;63.37
15674;BME280;7937;48.090;16.212;2023-06-04T15:59:05;98062.84;;;17.10;63.55
15674;BME280;7937;48.090;16.212;2023-06-04T16:02:07;98062.03;;;17.10;63.75
15674;BME280;7937;48.090;16.212;2023-06-04T16:05:09;98070.63;;;17.12;64.12
15674;BME280;7937;48.090;16.212;2023-06-04T16:08:13;98057.47;;;17.05;64.24
15674;BME280;7937;48.090;16.212;2023-06-04T16:11:16;98070.66;;;17.07;64.73
15674;BME280;7937;48.090;16.212;2023-06-04T16:14:18;98062.09;;;16.99;65.11
15674;BME280;7937;48.090;16.212;2023-06-04T16:17:20;98036.00;;;16.74;65.82
15674;BME280;7937;48.090;16.212;2023-06-04T16:20:23;98063.97;;;16.84;66.04
15674;BME280;7937;48.090;16.212;2023-06-04T16:23:26;98063.97;;;16.84;66.10
15674;BME280;7937;48.090;16.212;2023-06-04T16:26:29;98028.53;;;16.51;66.66
15674;BME280;7937;48.090;16.212;2023-06-04T16:29:31;98069.94;;;16.75;66.85